sensor_id;sensor_type;location;lat;lon;timestamp;pressure;altitude;pressure_sealevel;temperature;humidity
15794;BME280;7999;51.208;4.244;2022-12-07T00:02:21;101896.84;;;2.75;100.00
15794;BME280;7999;51.208;4.244;2022-12-07T00:04:49;101899.41;;;2.75;100.00
15794;BME280;7999;51.208;4.244;2022-12-07T00:07:16;101894.28;;;2.75;100.00
15794;BME280;7999;51.208;4.244;2022-12-07T00:09:43;101903.06;;;2.81;100.00
15794;BME280;7999;51.208;4.244;2022-12-07T00:12:10;101891.63;;;2.56;100.00
15794;BME280;7999;51.208;4.244;2022-12-07T00:14:37;101893.53;;;2.60;100.00
15794;BME280;7999;51.208;4.244;2022-12-07T00:17:04;101893.53;;;2.60;100.00
15794;BME280;7999;51.208;4.244;2022-12-07T00:19:31;101893.66;;;2.63;100.00
15794;BME280;7999;51.208;4.244;2022-12-07T00:21:59;101890.88;;;2.59;100.00
15794;BME280;7999;51.208;4.244;2022-12-07T00:24:26;101886.56;;;2.58;100.00
15794;BME280;7999;51.208;4.244;2022-12-07T00:26:53;101886.25;;;2.52;100.00
15794;BME280;7999;51.208;4.244;2022-12-07T00:29:21;101884.03;;;2.41;100.00
15794;BME280;7999;51.208;4.244;2022-12-07T00:31:48;101882.50;;;2.45;100.00
15794;BME280;7999;51.208;4.244;2022-12-07T00:34:16;101877.94;;;2.39;100.00
15794;BME280;7999;51.208;4.244;2022-12-07T00:36:43;101883.22;;;2.42;100.00
15794;BME280;7999;51.208;4.244;2022-12-07T00:39:12;101886.47;;;2.56;100.00
15794;BME280;7999;51.208;4.244;2022-12-07T00:41:38;101902.03;;;2.59;100.00
15794;BME280;7999;51.208;4.244;2022-12-07T00:44:06;101899.34;;;2.74;100.00
15794;BME280;7999;51.208;4.244;2022-12-07T00:46:33;101894.72;;;2.85;100.00
15794;BME280;7999;51.208;4.244;2022-12-07T00:49:00;101881.34;;;2.92;100.00
15794;BME280;7999;51.208;4.244;2022-12-07T00:51:27;101885.66;;;2.93;100.00
15794;BME280;7999;51.208;4.244;2022-12-07T00:53:53;101890.22;;;2.98;100.00
15794;BME280;7999;51.208;4.244;2022-12-07T00:56:22;101880.31;;;3.06;100.00
15794;BME280;7999;51.208;4.244;2022-12-07T00:58:50;101884.91;;;3.13;100.00
15794;BME280;7999;51.208;4.244;2022-12-07T01:01:18;101877.22;;;3.13;100.00
15794;BME280;7999;51.208;4.244;2022-12-07T01:03:45;101877.06;;;3.10;100.00
15794;BME280;7999;51.208;4.244;2022-12-07T01:06:13;101877.75;;;3.06;100.00
15794;BME280;7999;51.208;4.244;2022-12-07T01:08:41;101878.41;;;3.02;100.00
15794;BME280;7999;51.208;4.244;2022-12-07T01:11:09;101871.06;;;2.92;100.00
15794;BME280;7999;51.208;4.244;2022-12-07T01:13:39;101872.53;;;2.87;100.00
15794;BME280;7999;51.208;4.244;2022-12-07T01:16:06;101871.81;;;2.71;100.00
15794;BME280;7999;51.208;4.244;2022-12-07T01:18:35;101871.00;;;2.72;100.00
15794;BME280;7999;51.208;4.244;2022-12-07T01:21:03;101868.75;;;2.78;100.00
15794;BME280;7999;51.208;4.244;2022-12-07T01:23:31;101879.28;;;2.85;100.00
15794;BME280;7999;51.208;4.244;2022-12-07T01:26:00;101876.53;;;2.80;100.00
15794;BME280;7999;51.208;4.244;2022-12-07T01:28:27;101887.59;;;2.79;100.00
15794;BME280;7999;51.208;4.244;2022-12-07T01:30:59;101882.06;;;2.71;100.00
15794;BME280;7999;51.208;4.244;2022-12-07T01:33:27;101884.50;;;2.68;100.00
15794;BME280;7999;51.208;4.244;2022-12-07T01:35:54;101881.34;;;2.56;100.00
15794;BME280;7999;51.208;4.244;2022-12-07T01:38:21;101888.25;;;2.57;100.00
15794;BME280;7999;51.208;4.244;2022-12-07T01:40:53;101881.28;;;2.55;100.00
15794;BME280;7999;51.208;4.244;2022-12-07T01:43:20;101881.19;;;2.53;100.00
15794;BME280;7999;51.208;4.244;2022-12-07T01:45:48;101884.44;;;2.49;100.00
15794;BME280;7999;51.208;4.244;2022-12-07T01:48:18;101877.13;;;2.40;100.00
15794;BME280;7999;51.208;4.244;2022-12-07T01:50:46;101885.72;;;2.41;100.00
15794;BME280;7999;51.208;4.244;2022-12-07T01:53:14;101874.28;;;2.34;100.00
15794;BME280;7999;51.208;4.244;2022-12-07T01:55:42;101880.00;;;2.29;100.00
15794;BME280;7999;51.208;4.244;2022-12-07T01:58:11;101883.38;;;2.45;100.00
15794;BME280;7999;51.208;4.244;2022-12-07T02:00:39;101883.84;;;2.55;100.00
15794;BME280;7999;51.208;4.244;2022-12-07T02:03:07;101883.53;;;2.66;100.00
15794;BME280;7999;51.208;4.244;2022-12-07T02:05:37;101883.03;;;2.73;100.00
15794;BME280;7999;51.208;4.244;2022-12-07T02:08:05;101879.28;;;2.85;100.00
15794;BME280;7999;51.208;4.244;2022-12-07T02:10:34;101881.00;;;3.02;100.00
15794;BME280;7999;51.208;4.244;2022-12-07T02:13:01;101879.78;;;3.13;100.00
15794;BME280;7999;51.208;4.244;2022-12-07T02:15:33;101880.44;;;3.09;100.00
15794;BME280;7999;51.208;4.244;2022-12-07T02:18:05;101872.34;;;3.19;100.00
15794;BME280;7999;51.208;4.244;2022-12-07T02:20:35;101876.00;;;3.24;100.00
15794;BME280;7999;51.208;4.244;2022-12-07T02:23:24;101878.16;;;3.15;100.00
15794;BME280;7999;51.208;4.244;2022-12-07T02:26:11;101880.88;;;3.18;100.00
15794;BME280;7999;51.208;4.244;2022-12-07T02:28:51;101872.97;;;3.14;100.00
15794;BME280;7999;51.208;4.244;2022-12-07T02:31:22;101865.66;;;3.03;100.00
15794;BME280;7999;51.208;4.244;2022-12-07T02:33:51;101864.16;;;3.08;100.00
15794;BME280;7999;51.208;4.244;2022-12-07T02:36:21;101873.91;;;2.98;100.00
15794;BME280;7999;51.208;4.244;2022-12-07T02:38:54;101879.06;;;2.98;100.00
15794;BME280;7999;51.208;4.244;2022-12-07T02:41:24;101876.78;;;3.04;100.00
15794;BME280;7999;51.208;4.244;2022-12-07T02:43:55;101872.31;;;3.00;100.00
15794;BME280;7999;51.208;4.244;2022-12-07T02:46:25;101874.59;;;2.94;100.00
15794;BME280;7999;51.208;4.244;2022-12-07T02:48:53;101878.09;;;2.96;100.00
15794;BME280;7999;51.208;4.244;2022-12-07T02:51:21;101872.22;;;2.98;100.00
15794;BME280;7999;51.208;4.244;2022-12-07T02:53:47;101863.94;;;3.04;100.00
15794;BME280;7999;51.208;4.244;2022-12-07T02:56:16;101870.31;;;3.12;100.00
15794;BME280;7999;51.208;4.244;2022-12-07T02:58:50;101861.66;;;3.10;100.00
15794;BME280;7999;51.208;4.244;2022-12-07T03:01:25;101865.72;;;3.24;100.00
15794;BME280;7999;51.208;4.244;2022-12-07T03:03:57;101858.69;;;3.20;100.00
15794;BME280;7999;51.208;4.244;2022-12-07T03:06:27;101860.31;;;3.18;100.00
15794;BME280;7999;51.208;4.244;2022-12-07T03:08:56;101862.88;;;3.18;100.00
15794;BME280;7999;51.208;4.244;2022-12-07T03:11:25;101861.25;;;3.20;100.00
15794;BME280;7999;51.208;4.244;2022-12-07T03:13:58;101863.97;;;3.23;100.00
15794;BME280;7999;51.208;4.244;2022-12-07T03:16:28;101859.28;;;3.15;100.00
15794;BME280;7999;51.208;4.244;2022-12-07T03:18:59;101852.34;;;3.12;100.00
15794;BME280;7999;51.208;4.244;2022-12-07T03:21:27;101854.19;;;2.97;100.00
15794;BME280;7999;51.208;4.244;2022-12-07T03:23:56;101848.38;;;3.01;100.00
15794;BME280;7999;51.208;4.244;2022-12-07T03:26:28;101850.06;;;3.00;100.00
15794;BME280;7999;51.208;4.244;2022-12-07T03:28:58;101861.22;;;3.01;100.00
15794;BME280;7999;51.208;4.244;2022-12-07T03:31:29;101870.31;;;3.12;100.00
15794;BME280;7999;51.208;4.244;2022-12-07T03:33:59;101857.69;;;2.99;100.00
15794;BME280;7999;51.208;4.244;2022-12-07T03:36:30;101863.03;;;3.21;100.00
15794;BME280;7999;51.208;4.244;2022-12-07T03:39:01;101866.19;;;3.16;100.00
15794;BME280;7999;51.208;4.244;2022-12-07T03:41:31;101858.56;;;3.17;100.00
15794;BME280;7999;51.208;4.244;2022-12-07T03:43:59;101858.00;;;3.05;100.00
15794;BME280;7999;51.208;4.244;2022-12-07T03:46:29;101854.91;;;3.12;100.00
15794;BME280;7999;51.208;4.244;2022-12-07T03:49:03;101852.00;;;3.04;100.00
15794;BME280;7999;51.208;4.244;2022-12-07T03:51:33;101850.94;;;3.01;100.00
15794;BME280;7999;51.208;4.244;2022-12-07T03:54:06;101855.78;;;2.95;100.00
15794;BME280;7999;51.208;4.244;2022-12-07T03:56:36;101843.63;;;2.91;100.00
15794;BME280;7999;51.208;4.244;2022-12-07T03:59:03;101846.19;;;2.91;100.00
15794;BME280;7999;51.208;4.244;2022-12-07T04:01:32;101844.81;;;2.79;100.00
15794;BME280;7999;51.208;4.244;2022-12-07T04:03:59;101840.50;;;2.78;100.00
15794;BME280;7999;51.208;4.244;2022-12-07T04:06:26;101828.69;;;2.64;100.00
15794;BME280;7999;51.208;4.244;2022-12-07T04:08:53;101840.13;;;2.53;100.00
15794;BME280;7999;51.208;4.244;2022-12-07T04:11:20;101845.59;;;2.43;100.00
15794;BME280;7999;51.208;4.244;2022-12-07T04:13:47;101848.19;;;2.43;100.00
15794;BME280;7999;51.208;4.244;2022-12-07T04:16:30;101839.84;;;2.47;100.00
15794;BME280;7999;51.208;4.244;2022-12-07T04:18:58;101839.91;;;2.31;100.00
15794;BME280;7999;51.208;4.244;2022-12-07T04:21:25;101845.75;;;2.28;100.00
15794;BME280;7999;51.208;4.244;2022-12-07T04:23:52;101845.22;;;2.17;100.00
15794;BME280;7999;51.208;4.244;2022-12-07T04:26:18;101841.06;;;2.20;100.00
15794;BME280;7999;51.208;4.244;2022-12-07T04:28:45;101838.16;;;2.13;100.00
15794;BME280;7999;51.208;4.244;2022-12-07T04:31:12;101846.91;;;2.17;100.00
15794;BME280;7999;51.208;4.244;2022-12-07T04:33:39;101847.31;;;2.08;100.00
15794;BME280;7999;51.208;4.244;2022-12-07T04:36:07;101847.78;;;2.17;100.00
15794;BME280;7999;51.208;4.244;2022-12-07T04:38:34;101849.16;;;2.11;100.00
15794;BME280;7999;51.208;4.244;2022-12-07T04:41:04;101846.66;;;2.12;100.00
15794;BME280;7999;51.208;4.244;2022-12-07T04:43:31;101847.41;;;2.10;100.00
15794;BME280;7999;51.208;4.244;2022-12-07T04:45:58;101845.28;;;2.19;100.00
15794;BME280;7999;51.208;4.244;2022-12-07T04:48:24;101852.44;;;2.25;100.00
15794;BME280;7999;51.208;4.244;2022-12-07T04:50:51;101847.66;;;2.32;100.00
15794;BME280;7999;51.208;4.244;2022-12-07T04:53:20;101840.34;;;2.40;100.00
15794;BME280;7999;51.208;4.244;2022-12-07T04:55:46;101847.69;;;2.50;100.00
15794;BME280;7999;51.208;4.244;2022-12-07T04:58:13;101843.78;;;2.58;100.00
15794;BME280;7999;51.208;4.244;2022-12-07T05:00:40;101845.41;;;2.56;100.00
15794;BME280;7999;51.208;4.244;2022-12-07T05:03:06;101847.66;;;2.68;100.00
15794;BME280;7999;51.208;4.244;2022-12-07T05:05:33;101854.34;;;2.64;100.00
15794;BME280;7999;51.208;4.244;2022-12-07T05:08:00;101860.03;;;2.75;100.00
15794;BME280;7999;51.208;4.244;2022-12-07T05:10:27;101850.25;;;2.86;100.00
15794;BME280;7999;51.208;4.244;2022-12-07T05:12:55;101825.91;;;2.77;100.00
15794;BME280;7999;51.208;4.244;2022-12-07T05:15:21;101821.91;;;3.02;100.00
15794;BME280;7999;51.208;4.244;2022-12-07T05:17:48;101828.06;;;3.05;100.00
15794;BME280;7999;51.208;4.244;2022-12-07T05:20:15;101844.22;;;3.03;100.00
15794;BME280;7999;51.208;4.244;2022-12-07T05:22:41;101836.78;;;3.09;100.00
15794;BME280;7999;51.208;4.244;2022-12-07T05:25:08;101832.47;;;3.08;100.00
15794;BME280;7999;51.208;4.244;2022-12-07T05:27:37;101825.84;;;3.13;100.00
15794;BME280;7999;51.208;4.244;2022-12-07T05:30:05;101829.81;;;3.06;100.00
15794;BME280;7999;51.208;4.244;2022-12-07T05:32:32;101835.97;;;3.10;100.00
15794;BME280;7999;51.208;4.244;2022-12-07T05:34:58;101831.84;;;3.14;100.00
15794;BME280;7999;51.208;4.244;2022-12-07T05:37:25;101827.31;;;3.08;100.00
15794;BME280;7999;51.208;4.244;2022-12-07T05:39:58;101824.47;;;3.21;100.00
15794;BME280;7999;51.208;4.244;2022-12-07T05:42:25;101827.06;;;3.40;100.00
15794;BME280;7999;51.208;4.244;2022-12-07T05:44:52;101833.44;;;3.29;100.00
15794;BME280;7999;51.208;4.244;2022-12-07T05:47:19;101824.50;;;3.40;100.00
15794;BME280;7999;51.208;4.244;2022-12-07T05:49:46;101818.41;;;3.38;100.00
15794;BME280;7999;51.208;4.244;2022-12-07T05:52:12;101818.91;;;3.30;100.00
15794;BME280;7999;51.208;4.244;2022-12-07T05:54:39;101815.66;;;3.34;100.00
15794;BME280;7999;51.208;4.244;2022-12-07T05:57:05;101823.94;;;3.28;100.00
15794;BME280;7999;51.208;4.244;2022-12-07T05:59:32;101826.50;;;3.28;100.00
15794;BME280;7999;51.208;4.244;2022-12-07T06:02:00;101830.06;;;3.30;100.00
15794;BME280;7999;51.208;4.244;2022-12-07T06:04:28;101828.44;;;3.32;100.00
15794;BME280;7999;51.208;4.244;2022-12-07T06:06:55;101841.34;;;3.34;100.00
15794;BME280;7999;51.208;4.244;2022-12-07T06:09:23;101829.63;;;3.21;100.00
15794;BME280;7999;51.208;4.244;2022-12-07T06:11:50;101843.53;;;3.26;100.00
15794;BME280;7999;51.208;4.244;2022-12-07T06:14:34;101841.78;;;3.25;100.00
15794;BME280;7999;51.208;4.244;2022-12-07T06:17:03;101843.03;;;3.33;100.00
15794;BME280;7999;51.208;4.244;2022-12-07T06:19:29;101842.38;;;3.37;100.00
15794;BME280;7999;51.208;4.244;2022-12-07T06:21:57;101838.41;;;3.26;100.00
15794;BME280;7999;51.208;4.244;2022-12-07T06:24:23;101824.91;;;3.30;100.00
15794;BME280;7999;51.208;4.244;2022-12-07T06:26:50;101829.06;;;3.09;100.00
15794;BME280;7999;51.208;4.244;2022-12-07T06:29:20;101826.38;;;3.25;100.00
15794;BME280;7999;51.208;4.244;2022-12-07T06:31:47;101836.66;;;3.25;100.00
15794;BME280;7999;51.208;4.244;2022-12-07T06:34:16;101824.63;;;3.24;100.00
15794;BME280;7999;51.208;4.244;2022-12-07T06:36:43;101847.59;;;3.21;100.00
15794;BME280;7999;51.208;4.244;2022-12-07T06:39:11;101833.00;;;3.20;100.00
15794;BME280;7999;51.208;4.244;2022-12-07T06:41:38;101838.34;;;3.05;100.00
15794;BME280;7999;51.208;4.244;2022-12-07T06:44:06;101840.53;;;2.98;100.00
15794;BME280;7999;51.208;4.244;2022-12-07T06:46:33;101830.56;;;2.86;100.00
15794;BME280;7999;51.208;4.244;2022-12-07T06:49:00;101832.19;;;2.84;100.00
15794;BME280;7999;51.208;4.244;2022-12-07T06:51:28;101834.69;;;2.83;100.00
15794;BME280;7999;51.208;4.244;2022-12-07T06:53:55;101838.66;;;2.76;100.00
15794;BME280;7999;51.208;4.244;2022-12-07T06:56:21;101832.59;;;2.74;100.00
15794;BME280;7999;51.208;4.244;2022-12-07T06:58:48;101834.41;;;2.59;100.00
15794;BME280;7999;51.208;4.244;2022-12-07T07:01:15;101831.63;;;2.54;100.00
15794;BME280;7999;51.208;4.244;2022-12-07T07:03:43;101832.78;;;2.43;100.00
15794;BME280;7999;51.208;4.244;2022-12-07T07:06:09;101831.81;;;2.41;100.00
15794;BME280;7999;51.208;4.244;2022-12-07T07:08:38;101839.09;;;2.32;100.00
15794;BME280;7999;51.208;4.244;2022-12-07T07:11:05;101837.34;;;2.31;100.00
15794;BME280;7999;51.208;4.244;2022-12-07T07:13:32;101841.44;;;2.27;100.00
15794;BME280;7999;51.208;4.244;2022-12-07T07:15:58;101841.69;;;2.15;100.00
15794;BME280;7999;51.208;4.244;2022-12-07T07:18:25;101840.50;;;2.09;100.00
15794;BME280;7999;51.208;4.244;2022-12-07T07:20:52;101829.97;;;2.03;100.00
15794;BME280;7999;51.208;4.244;2022-12-07T07:23:19;101833.41;;;2.03;100.00
15794;BME280;7999;51.208;4.244;2022-12-07T07:25:47;101833.50;;;2.23;100.00
15794;BME280;7999;51.208;4.244;2022-12-07T07:28:15;101826.78;;;2.25;100.00
15794;BME280;7999;51.208;4.244;2022-12-07T07:30:42;101830.28;;;2.27;100.00
15794;BME280;7999;51.208;4.244;2022-12-07T07:33:09;101830.47;;;2.13;100.00
15794;BME280;7999;51.208;4.244;2022-12-07T07:35:36;101835.38;;;2.09;100.00
15794;BME280;7999;51.208;4.244;2022-12-07T07:38:04;101832.75;;;2.07;100.00
15794;BME280;7999;51.208;4.244;2022-12-07T07:40:31;101832.81;;;2.09;100.00
15794;BME280;7999;51.208;4.244;2022-12-07T07:42:59;101831.91;;;2.25;100.00
15794;BME280;7999;51.208;4.244;2022-12-07T07:45:26;101838.88;;;2.27;100.00
15794;BME280;7999;51.208;4.244;2022-12-07T07:47:53;101837.47;;;2.34;100.00
15794;BME280;7999;51.208;4.244;2022-12-07T07:50:20;101841.44;;;2.45;100.00
15794;BME280;7999;51.208;4.244;2022-12-07T07:52:47;101843.78;;;2.58;100.00
15794;BME280;7999;51.208;4.244;2022-12-07T07:55:13;101845.78;;;2.82;100.00
15794;BME280;7999;51.208;4.244;2022-12-07T07:57:40;101852.75;;;2.84;100.00
15794;BME280;7999;51.208;4.244;2022-12-07T08:00:09;101855.78;;;2.95;100.00
15794;BME280;7999;51.208;4.244;2022-12-07T08:02:39;101855.78;;;2.95;100.00
15794;BME280;7999;51.208;4.244;2022-12-07T08:05:06;101864.59;;;3.00;100.00
15794;BME280;7999;51.208;4.244;2022-12-07T08:07:33;101865.56;;;3.02;100.00
15794;BME280;7999;51.208;4.244;2022-12-07T08:10:00;101865.19;;;3.12;100.00
15794;BME280;7999;51.208;4.244;2022-12-07T08:12:26;101869.66;;;3.16;100.00
15794;BME280;7999;51.208;4.244;2022-12-07T08:14:53;101875.13;;;3.24;100.00
15794;BME280;7999;51.208;4.244;2022-12-07T08:17:21;101876.06;;;3.26;100.00
15794;BME280;7999;51.208;4.244;2022-12-07T08:19:47;101868.81;;;3.35;100.00
15794;BME280;7999;51.208;4.244;2022-12-07T08:22:14;101861.13;;;3.17;100.00
15794;BME280;7999;51.208;4.244;2022-12-07T08:24:41;101855.19;;;3.18;100.00
15794;BME280;7999;51.208;4.244;2022-12-07T08:27:08;101867.94;;;3.17;100.00
15794;BME280;7999;51.208;4.244;2022-12-07T08:29:34;101870.47;;;3.15;100.00
15794;BME280;7999;51.208;4.244;2022-12-07T08:32:01;101871.59;;;3.22;100.00
15794;BME280;7999;51.208;4.244;2022-12-07T08:34:29;101873.88;;;3.33;100.00
15794;BME280;7999;51.208;4.244;2022-12-07T08:36:56;101875.28;;;3.46;100.00
15794;BME280;7999;51.208;4.244;2022-12-07T08:39:23;101874.63;;;3.50;100.00
15794;BME280;7999;51.208;4.244;2022-12-07T08:41:50;101875.38;;;3.48;100.00
15794;BME280;7999;51.208;4.244;2022-12-07T08:44:17;101874.63;;;3.50;100.00
15794;BME280;7999;51.208;4.244;2022-12-07T08:46:44;101868.28;;;3.61;100.00
15794;BME280;7999;51.208;4.244;2022-12-07T08:49:13;101866.72;;;3.65;100.00
15794;BME280;7999;51.208;4.244;2022-12-07T08:51:43;101862.13;;;3.58;100.00
15794;BME280;7999;51.208;4.244;2022-12-07T08:54:11;101858.75;;;3.59;100.00
15794;BME280;7999;51.208;4.244;2022-12-07T08:56:39;101855.50;;;3.63;100.00
15794;BME280;7999;51.208;4.244;2022-12-07T08:59:08;101862.78;;;3.73;100.00
15794;BME280;7999;51.208;4.244;2022-12-07T09:01:35;101861.41;;;3.81;100.00
15794;BME280;7999;51.208;4.244;2022-12-07T09:04:02;101859.44;;;3.95;100.00
15794;BME280;7999;51.208;4.244;2022-12-07T09:06:28;101847.06;;;4.26;100.00
15794;BME280;7999;51.208;4.244;2022-12-07T09:08:57;101855.19;;;4.79;100.00
15794;BME280;7999;51.208;4.244;2022-12-07T09:11:25;101848.75;;;5.35;100.00
15794;BME280;7999;51.208;4.244;2022-12-07T09:13:51;101848.75;;;5.82;100.00
15794;BME280;7999;51.208;4.244;2022-12-07T09:16:20;101849.44;;;6.53;100.00
15794;BME280;7999;51.208;4.244;2022-12-07T09:18:47;101849.16;;;6.71;100.00
15794;BME280;7999;51.208;4.244;2022-12-07T09:21:14;101853.53;;;7.00;100.00
15794;BME280;7999;51.208;4.244;2022-12-07T09:23:41;101851.31;;;7.12;100.00
15794;BME280;7999;51.208;4.244;2022-12-07T09:26:10;101855.50;;;7.67;100.00
15794;BME280;7999;51.208;4.244;2022-12-07T09:28:37;101857.69;;;7.85;100.00
15794;BME280;7999;51.208;4.244;2022-12-07T09:31:04;101859.81;;;7.38;100.00
15794;BME280;7999;51.208;4.244;2022-12-07T09:33:32;101859.63;;;7.02;100.00
15794;BME280;7999;51.208;4.244;2022-12-07T09:35:59;101862.38;;;6.80;100.00
15794;BME280;7999;51.208;4.244;2022-12-07T09:38:26;101857.78;;;6.44;100.00
15794;BME280;7999;51.208;4.244;2022-12-07T09:40:53;101852.63;;;6.19;100.00
15794;BME280;7999;51.208;4.244;2022-12-07T09:43:22;101847.56;;;5.97;100.00
15794;BME280;7999;51.208;4.244;2022-12-07T09:45:50;101848.56;;;5.52;100.00
15794;BME280;7999;51.208;4.244;2022-12-07T09:48:19;101854.22;;;5.44;100.00
15794;BME280;7999;51.208;4.244;2022-12-07T09:50:46;101847.38;;;5.68;100.00
15794;BME280;7999;51.208;4.244;2022-12-07T09:53:14;101840.09;;;5.80;100.00
15794;BME280;7999;51.208;4.244;2022-12-07T09:55:42;101849.44;;;5.53;100.00
15794;BME280;7999;51.208;4.244;2022-12-07T09:58:10;101842.50;;;6.00;100.00
15794;BME280;7999;51.208;4.244;2022-12-07T10:00:44;101851.00;;;5.73;100.00
15794;BME280;7999;51.208;4.244;2022-12-07T10:03:11;101844.47;;;5.59;100.00
15794;BME280;7999;51.208;4.244;2022-12-07T10:05:39;101847.66;;;5.52;100.00
15794;BME280;7999;51.208;4.244;2022-12-07T10:08:08;101849.94;;;5.44;100.00
15794;BME280;7999;51.208;4.244;2022-12-07T10:10:37;101851.44;;;5.85;100.00
15794;BME280;7999;51.208;4.244;2022-12-07T10:13:05;101847.16;;;5.86;100.00
15794;BME280;7999;51.208;4.244;2022-12-07T10:15:43;101841.06;;;5.60;100.00
15794;BME280;7999;51.208;4.244;2022-12-07T10:18:18;101843.59;;;5.82;100.00
15794;BME280;7999;51.208;4.244;2022-12-07T10:20:46;101834.78;;;5.76;100.00
15794;BME280;7999;51.208;4.244;2022-12-07T10:23:14;101835.13;;;5.86;100.00
15794;BME280;7999;51.208;4.244;2022-12-07T10:25:44;101836.00;;;5.87;100.00
15794;BME280;7999;51.208;4.244;2022-12-07T10:28:13;101837.03;;;5.91;100.00
15794;BME280;7999;51.208;4.244;2022-12-07T10:30:48;101834.31;;;6.11;100.00
15794;BME280;7999;51.208;4.244;2022-12-07T10:33:36;101828.91;;;6.04;100.00
15794;BME280;7999;51.208;4.244;2022-12-07T10:36:17;101827.00;;;6.00;100.00
15794;BME280;7999;51.208;4.244;2022-12-07T10:38:44;101833.47;;;5.88;100.00
15794;BME280;7999;51.208;4.244;2022-12-07T10:41:11;101833.91;;;6.01;100.00
15794;BME280;7999;51.208;4.244;2022-12-07T10:43:43;101831.41;;;5.78;100.00
15794;BME280;7999;51.208;4.244;2022-12-07T10:49:03;101835.16;;;5.63;100.00
15794;BME280;7999;51.208;4.244;2022-12-07T10:51:35;101809.81;;;5.51;100.00
15794;BME280;7999;51.208;4.244;2022-12-07T10:54:09;101797.34;;;5.63;100.00
15794;BME280;7999;51.208;4.244;2022-12-07T10:56:53;101792.47;;;5.72;100.00
15794;BME280;7999;51.208;4.244;2022-12-07T10:59:27;101789.91;;;5.72;100.00
15794;BME280;7999;51.208;4.244;2022-12-07T11:02:00;101788.81;;;5.66;100.00
15794;BME280;7999;51.208;4.244;2022-12-07T11:04:33;101785.41;;;5.67;100.00
15794;BME280;7999;51.208;4.244;2022-12-07T11:07:04;101785.06;;;5.81;100.00
15794;BME280;7999;51.208;4.244;2022-12-07T11:09:38;101786.88;;;6.08;100.00
15794;BME280;7999;51.208;4.244;2022-12-07T11:12:12;101778.25;;;5.83;100.00
15794;BME280;7999;51.208;4.244;2022-12-07T11:14:41;101771.84;;;5.72;100.00
15794;BME280;7999;51.208;4.244;2022-12-07T11:17:12;101773.09;;;5.83;100.00
15794;BME280;7999;51.208;4.244;2022-12-07T11:19:49;101771.94;;;5.99;100.00
15794;BME280;7999;51.208;4.244;2022-12-07T11:22:20;101767.22;;;5.87;100.00
15794;BME280;7999;51.208;4.244;2022-12-07T11:24:53;101771.97;;;6.01;100.00
15794;BME280;7999;51.208;4.244;2022-12-07T11:27:24;101762.09;;;5.89;100.00
15794;BME280;7999;51.208;4.244;2022-12-07T11:32:44;101759.81;;;5.97;100.00
15794;BME280;7999;51.208;4.244;2022-12-07T11:35:28;101760.47;;;6.16;100.00
15794;BME280;7999;51.208;4.244;2022-12-07T11:37:57;101750.69;;;6.33;100.00
15794;BME280;7999;51.208;4.244;2022-12-07T11:40:26;101759.25;;;6.32;100.00
15794;BME280;7999;51.208;4.244;2022-12-07T11:42:55;101757.81;;;6.69;100.00
15794;BME280;7999;51.208;4.244;2022-12-07T11:45:26;101752.06;;;6.79;100.00
15794;BME280;7999;51.208;4.244;2022-12-07T11:47:54;101754.28;;;6.95;100.00
15794;BME280;7999;51.208;4.244;2022-12-07T11:50:27;101740.69;;;7.02;100.00
15794;BME280;7999;51.208;4.244;2022-12-07T11:52:57;101746.38;;;6.61;100.00
15794;BME280;7999;51.208;4.244;2022-12-07T11:55:26;101742.47;;;6.75;100.00
15794;BME280;7999;51.208;4.244;2022-12-07T11:57:56;101739.66;;;6.96;100.00
15794;BME280;7999;51.208;4.244;2022-12-07T12:00:25;101731.75;;;6.91;100.00
15794;BME280;7999;51.208;4.244;2022-12-07T12:02:52;101730.97;;;6.94;100.00
15794;BME280;7999;51.208;4.244;2022-12-07T12:05:21;101723.25;;;6.95;100.00
15794;BME280;7999;51.208;4.244;2022-12-07T12:07:51;101719.78;;;7.25;100.00
15794;BME280;7999;51.208;4.244;2022-12-07T12:10:21;101720.34;;;7.46;100.00
15794;BME280;7999;51.208;4.244;2022-12-07T12:15:44;101710.72;;;7.09;100.00
15794;BME280;7999;51.208;4.244;2022-12-07T12:18:19;101714.91;;;7.05;100.00
15794;BME280;7999;51.208;4.244;2022-12-07T12:20:51;101708.38;;;6.87;100.00
15794;BME280;7999;51.208;4.244;2022-12-07T12:23:23;101711.34;;;7.00;100.00
15794;BME280;7999;51.208;4.244;2022-12-07T12:25:54;101711.13;;;6.93;100.00
15794;BME280;7999;51.208;4.244;2022-12-07T12:28:23;101711.38;;;6.72;100.00
15794;BME280;7999;51.208;4.244;2022-12-07T12:31:04;101705.28;;;6.70;100.00
15794;BME280;7999;51.208;4.244;2022-12-07T12:33:32;101701.63;;;6.62;100.00
15794;BME280;7999;51.208;4.244;2022-12-07T12:39:07;101688.88;;;6.39;100.00
15794;BME280;7999;51.208;4.244;2022-12-07T12:47:43;101688.69;;;6.62;100.00
15794;BME280;7999;51.208;4.244;2022-12-07T12:50:20;101695.88;;;6.72;100.00
15794;BME280;7999;51.208;4.244;2022-12-07T12:55:46;101694.69;;;6.61;100.00
15794;BME280;7999;51.208;4.244;2022-12-07T13:03:51;101716.53;;;5.39;100.00
15794;BME280;7999;51.208;4.244;2022-12-07T13:06:19;101709.63;;;5.14;100.00
15794;BME280;7999;51.208;4.244;2022-12-07T13:08:46;101694.97;;;4.89;100.00
15794;BME280;7999;51.208;4.244;2022-12-07T13:11:18;101679.16;;;5.02;100.00
15794;BME280;7999;51.208;4.244;2022-12-07T13:13:46;101680.78;;;5.24;100.00
15794;BME280;7999;51.208;4.244;2022-12-07T13:18:58;101674.88;;;5.26;100.00
15794;BME280;7999;51.208;4.244;2022-12-07T13:21:40;101677.41;;;5.01;100.00
15794;BME280;7999;51.208;4.244;2022-12-07T13:24:07;101671.31;;;4.99;100.00
15794;BME280;7999;51.208;4.244;2022-12-07T13:26:39;101666.88;;;4.95;100.00
15794;BME280;7999;51.208;4.244;2022-12-07T13:29:11;101672.03;;;4.95;100.00
15794;BME280;7999;51.208;4.244;2022-12-07T13:31:39;101665.25;;;4.97;100.00
15794;BME280;7999;51.208;4.244;2022-12-07T13:36:48;101657.50;;;5.21;100.00
15794;BME280;7999;51.208;4.244;2022-12-07T13:39:17;101660.59;;;5.12;100.00
15794;BME280;7999;51.208;4.244;2022-12-07T13:41:48;101664.38;;;4.96;100.00